Kilgore, Ohio
Current Conditions -  °F | °C
As of 4:53 PM on Sunday 23 Nov 2014 (Local Time) from KPHD Reporting Station
Clear Clear  
Wind Chill: 62°   Ceiling: Unl
Heat Index: 62°   Visibility: 10mi
Dew Point: 44°   Wind: 13mph
Humidity: 52%   Direction: 130°SE
Pressure: 29.75"   Gusts: NA
Location:  40.5653°N, 81.0724°W
Report Text: KPHD 232153Z AUTO 13011KT 10SM CLR 17/07 A2975 RMK AO2 SLP074 T01670067
Loading
Personal Weather Stations






























Interactive Weather Map New forecast layout! Learn more

10-Day Weather Forecast

Advertisements
Track Severe Weather on mobile